createdAt,value
2019-02-20T00:00:08.000Z,5.46
2019-02-20T00:01:07.974Z,5.43
2019-02-20T00:02:07.960Z,5.43
2019-02-20T00:03:07.936Z,5.48
2019-02-20T00:04:07.902Z,5.49
2019-02-20T00:05:07.878Z,5.51
2019-02-20T00:06:07.881Z,5.56
2019-02-20T00:07:07.831Z,5.39
2019-02-20T00:08:07.803Z,5.39
2019-02-20T00:09:07.781Z,5.36
2019-02-20T00:10:07.771Z,5.46
2019-02-20T00:11:07.740Z,5.36
2019-02-20T00:12:07.713Z,5.45
2019-02-20T00:13:07.690Z,5.42
2019-02-20T00:14:07.663Z,5.42
2019-02-20T00:15:07.639Z,5.43
2019-02-20T00:16:07.611Z,5.48
2019-02-20T00:17:07.596Z,5.38
2019-02-20T00:18:07.582Z,5.39
2019-02-20T00:19:07.550Z,5.35
2019-02-20T00:20:07.515Z,5.35
2019-02-20T00:21:07.500Z,5.33
2019-02-20T00:22:07.466Z,5.28
2019-02-20T00:23:07.446Z,5.36
2019-02-20T00:24:07.424Z,5.38
2019-02-20T00:25:07.403Z,5.31
2019-02-20T00:26:07.369Z,5.35
2019-02-20T00:27:07.346Z,5.31
2019-02-20T00:28:07.326Z,5.30
2019-02-20T00:29:07.306Z,5.35
2019-02-20T00:30:07.284Z,5.33
2019-02-20T00:31:07.249Z,5.35
2019-02-20T00:32:07.225Z,5.33
2019-02-20T00:33:07.201Z,5.39
2019-02-20T00:34:08.290Z,5.40
2019-02-20T00:35:07.151Z,5.35
2019-02-20T00:36:07.128Z,5.30
2019-02-20T00:37:07.103Z,5.27
2019-02-20T00:38:07.107Z,5.28
2019-02-20T00:39:07.060Z,5.31
2019-02-20T00:40:07.030Z,5.30
2019-02-20T00:41:07.006Z,5.40
2019-02-20T00:42:06.982Z,5.35
2019-02-20T00:43:06.969Z,5.36
2019-02-20T00:44:06.944Z,5.39
2019-02-20T00:45:06.914Z,5.46
2019-02-20T00:46:06.890Z,5.46
2019-02-20T00:47:06.865Z,5.33
2019-02-20T00:48:06.843Z,5.40
2019-02-20T00:49:06.817Z,5.43
2019-02-20T00:50:06.791Z,5.39
2019-02-20T00:51:06.770Z,5.30
2019-02-20T00:52:06.746Z,5.27
2019-02-20T00:53:06.740Z,5.30
2019-02-20T00:54:06.699Z,5.40
2019-02-20T00:55:06.670Z,5.36
2019-02-20T00:56:06.644Z,5.45
2019-02-20T00:57:06.622Z,5.36
2019-02-20T00:58:06.598Z,5.40
2019-02-20T00:59:06.573Z,5.33
2019-02-20T01:00:06.558Z,5.45
2019-02-20T01:01:06.526Z,5.35
2019-02-20T01:02:06.502Z,5.28
2019-02-20T01:03:06.478Z,5.38
2019-02-20T01:04:06.452Z,5.31
2019-02-20T01:05:06.428Z,5.35
2019-02-20T01:06:06.405Z,5.31
2019-02-20T01:07:06.382Z,5.28
2019-02-20T01:08:06.357Z,5.35
2019-02-20T01:09:06.329Z,5.31
2019-02-20T01:10:06.306Z,5.39
2019-02-20T01:11:06.283Z,5.43
2019-02-20T01:12:06.271Z,5.39
2019-02-20T01:13:06.234Z,5.40
2019-02-20T01:14:06.216Z,5.46
2019-02-20T01:15:06.187Z,5.40
2019-02-20T01:16:06.163Z,5.49
2019-02-20T01:17:06.159Z,5.57
2019-02-20T01:18:06.129Z,5.49
2019-02-20T01:19:06.090Z,5.53
2019-02-20T01:20:06.064Z,5.53
2019-02-20T01:21:06.042Z,5.49
2019-02-20T01:22:06.025Z,5.61
2019-02-20T01:23:05.990Z,5.60
2019-02-20T01:24:05.966Z,5.64
2019-02-20T01:25:05.943Z,5.64
2019-02-20T01:26:05.919Z,5.60
2019-02-20T01:27:05.899Z,5.60
2019-02-20T01:28:05.870Z,5.63
2019-02-20T01:29:05.847Z,5.68
2019-02-20T01:30:05.822Z,5.61
2019-02-20T01:31:05.801Z,5.60
2019-02-20T01:32:05.772Z,5.60
2019-02-20T01:33:05.759Z,5.61
2019-02-20T01:34:05.724Z,5.64
2019-02-20T01:35:05.701Z,5.63
2019-02-20T01:36:05.676Z,5.75
2019-02-20T01:37:05.658Z,5.74
2019-02-20T01:38:05.631Z,5.72
2019-02-20T01:39:05.604Z,5.71
2019-02-20T01:40:05.587Z,5.75
2019-02-20T01:41:05.554Z,5.74
2019-02-20T01:42:05.529Z,5.78
2019-02-20T01:43:05.507Z,5.79
2019-02-20T01:44:05.492Z,5.76
2019-02-20T01:45:05.468Z,5.79
2019-02-20T01:46:05.436Z,5.78
2019-02-20T01:47:05.411Z,5.83
2019-02-20T01:48:05.386Z,5.72
2019-02-20T01:49:05.367Z,5.74
2019-02-20T01:50:05.344Z,5.83
2019-02-20T01:51:05.314Z,5.75
2019-02-20T01:52:05.291Z,5.79
2019-02-20T01:53:10.379Z,5.76
2019-02-20T01:54:05.246Z,5.76
2019-02-20T01:55:05.217Z,5.76
2019-02-20T01:56:05.192Z,5.82
2019-02-20T01:57:05.166Z,5.82
2019-02-20T01:58:05.145Z,5.79
2019-02-20T01:59:05.120Z,5.85
2019-02-20T02:00:05.094Z,5.79
2019-02-20T02:01:05.069Z,5.78
2019-02-20T02:02:05.109Z,5.78
2019-02-20T02:03:05.024Z,5.79
2019-02-20T02:04:04.999Z,5.78
2019-02-20T02:05:04.978Z,5.89
2019-02-20T02:06:04.949Z,5.78
2019-02-20T02:07:04.927Z,5.94
2019-02-20T02:08:04.904Z,5.83
2019-02-20T02:09:04.883Z,5.89
2019-02-20T02:10:04.856Z,5.93
2019-02-20T02:11:04.831Z,5.83
2019-02-20T02:12:04.806Z,5.86
2019-02-20T02:13:04.791Z,5.90
2019-02-20T02:14:04.762Z,5.91
2019-02-20T02:15:04.733Z,6.00
2019-02-20T02:16:04.708Z,5.96
2019-02-20T02:17:04.686Z,5.93
2019-02-20T02:18:04.660Z,5.90
2019-02-20T02:19:04.636Z,5.86
2019-02-20T02:20:04.614Z,5.89
2019-02-20T02:21:04.591Z,5.91
2019-02-20T02:22:04.570Z,6.00
2019-02-20T02:23:04.543Z,5.96
2019-02-20T02:24:04.519Z,5.89
2019-02-20T02:25:04.498Z,5.96
2019-02-20T02:26:10.668Z,5.93
2019-02-20T02:27:04.443Z,5.94
2019-02-20T02:28:04.425Z,6.00
2019-02-20T02:29:04.416Z,5.99
2019-02-20T02:30:04.375Z,5.96
2019-02-20T02:31:04.365Z,6.01
2019-02-20T02:32:04.347Z,6.00
2019-02-20T02:33:04.300Z,6.00
2019-02-20T02:34:04.274Z,6.00
2019-02-20T02:35:04.256Z,6.00
2019-02-20T02:36:04.241Z,6.01
2019-02-20T02:37:04.226Z,6.01
2019-02-20T02:38:04.183Z,6.04
2019-02-20T02:39:04.159Z,5.99
2019-02-20T02:40:04.140Z,6.04
2019-02-20T02:41:04.146Z,6.01
2019-02-20T02:42:04.133Z,6.03
2019-02-20T02:43:04.063Z,6.03
2019-02-20T02:44:04.037Z,5.97
2019-02-20T02:45:04.011Z,5.93
2019-02-20T02:46:03.987Z,5.97
2019-02-20T02:47:03.974Z,5.96
2019-02-20T02:48:03.940Z,5.93
2019-02-20T02:49:03.914Z,5.93
2019-02-20T02:50:03.891Z,6.00
2019-02-20T02:51:03.868Z,5.99
2019-02-20T02:52:03.854Z,5.97
2019-02-20T02:53:03.823Z,5.96
2019-02-20T02:54:03.798Z,5.90
2019-02-20T02:55:03.771Z,5.93
2019-02-20T02:56:03.747Z,5.90
2019-02-20T02:57:03.724Z,5.91
2019-02-20T02:58:03.707Z,5.94
2019-02-20T02:59:03.680Z,5.94
2019-02-20T03:00:03.673Z,5.91
2019-02-20T03:01:03.634Z,5.91
2019-02-20T03:02:03.603Z,5.94
2019-02-20T03:03:03.582Z,5.97
2019-02-20T03:04:03.557Z,5.94
2019-02-20T03:05:03.535Z,5.86
2019-02-20T03:06:03.628Z,6.00
2019-02-20T03:07:03.484Z,5.93
2019-02-20T03:08:03.460Z,5.93
2019-02-20T03:09:03.454Z,6.01
2019-02-20T03:10:03.413Z,5.99
2019-02-20T03:11:03.392Z,5.94
2019-02-20T03:12:03.375Z,6.03
2019-02-20T03:13:03.341Z,6.01
2019-02-20T03:14:03.319Z,6.03
2019-02-20T03:15:03.294Z,6.00
2019-02-20T03:16:03.272Z,5.99
2019-02-20T03:17:03.252Z,5.94
2019-02-20T03:18:03.217Z,6.04
2019-02-20T03:19:03.195Z,6.01
2019-02-20T03:20:03.176Z,6.00
2019-02-20T03:21:03.152Z,5.93
2019-02-20T03:22:03.125Z,6.00
2019-02-20T03:23:03.104Z,5.97
2019-02-20T03:24:03.077Z,6.01
2019-02-20T03:25:03.051Z,6.00
2019-02-20T03:26:03.032Z,6.01
2019-02-20T03:27:03.003Z,5.99
2019-02-20T03:28:02.983Z,6.01
2019-02-20T03:29:02.964Z,5.97
2019-02-20T03:30:02.930Z,5.99
2019-02-20T03:31:02.914Z,6.01
2019-02-20T03:32:02.882Z,5.96
2019-02-20T03:33:02.866Z,5.96
2019-02-20T03:34:02.845Z,6.01
2019-02-20T03:35:02.810Z,5.96
2019-02-20T03:36:02.786Z,6.03
2019-02-20T03:37:02.762Z,6.03
2019-02-20T03:38:02.738Z,6.09
2019-02-20T03:39:02.721Z,5.93
2019-02-20T03:40:02.704Z,6.00
2019-02-20T03:41:02.675Z,5.90
2019-02-20T03:42:02.644Z,6.04
2019-02-20T03:43:02.615Z,6.01
2019-02-20T03:44:02.591Z,5.96
2019-02-20T03:45:02.572Z,5.96
2019-02-20T03:46:02.543Z,6.01
2019-02-20T03:47:02.520Z,5.97
2019-02-20T03:48:02.497Z,6.04
2019-02-20T03:49:02.479Z,6.04
2019-02-20T03:50:02.445Z,6.06
2019-02-20T03:51:02.421Z,5.94
2019-02-20T03:52:02.414Z,6.04
2019-02-20T03:53:02.372Z,6.06
2019-02-20T03:54:02.359Z,6.08
2019-02-20T03:55:02.331Z,6.06
2019-02-20T03:56:02.299Z,6.04
2019-02-20T03:57:02.275Z,6.03
2019-02-20T03:58:02.253Z,6.00
2019-02-20T03:59:02.230Z,6.00
2019-02-20T04:00:02.204Z,6.06
2019-02-20T04:01:02.185Z,6.08
2019-02-20T04:02:02.190Z,6.00
2019-02-20T04:03:02.133Z,6.04
2019-02-20T04:04:02.113Z,6.08
2019-02-20T04:05:02.152Z,5.97
2019-02-20T04:06:02.075Z,6.06
2019-02-20T04:07:02.040Z,6.03
2019-02-20T04:08:02.010Z,6.01
2019-02-20T04:09:01.987Z,6.01
2019-02-20T04:10:01.964Z,6.08
2019-02-20T04:11:01.958Z,6.03
2019-02-20T04:12:01.930Z,6.04
2019-02-20T04:13:01.901Z,6.00
2019-02-20T04:14:01.876Z,6.04
2019-02-20T04:15:01.845Z,6.06
2019-02-20T04:16:01.819Z,6.11
2019-02-20T04:17:01.793Z,6.03
2019-02-20T04:18:01.774Z,6.04
2019-02-20T04:19:01.775Z,6.03
2019-02-20T04:20:01.722Z,6.08
2019-02-20T04:21:01.707Z,6.03
2019-02-20T04:22:01.678Z,6.03
2019-02-20T04:23:01.649Z,6.08
2019-02-20T04:24:02.969Z,6.14
2019-02-20T04:25:01.600Z,6.15
2019-02-20T04:26:01.578Z,6.04
2019-02-20T04:27:01.555Z,6.03
2019-02-20T04:28:01.528Z,6.06
2019-02-20T04:29:01.506Z,6.15
2019-02-20T04:30:01.485Z,6.06
2019-02-20T04:31:01.461Z,6.06
2019-02-20T04:32:01.444Z,6.03
2019-02-20T04:33:01.408Z,6.03
2019-02-20T04:34:01.385Z,6.08
2019-02-20T04:35:01.360Z,6.01
2019-02-20T04:36:01.337Z,6.03
2019-02-20T04:37:01.315Z,6.04
2019-02-20T04:38:01.289Z,6.08
2019-02-20T04:39:01.264Z,6.03
2019-02-20T04:40:01.246Z,6.06
2019-02-20T04:41:01.220Z,6.00
2019-02-20T04:42:01.191Z,6.03
2019-02-20T04:43:01.169Z,6.08
2019-02-20T04:44:01.145Z,5.97
2019-02-20T04:45:01.144Z,6.01
2019-02-20T04:46:01.096Z,5.94
2019-02-20T04:47:01.071Z,6.01
2019-02-20T04:48:01.048Z,6.06
2019-02-20T04:49:01.024Z,6.01
2019-02-20T04:50:01.010Z,6.00
2019-02-20T04:51:00.980Z,6.03
2019-02-20T04:52:00.951Z,6.00
2019-02-20T04:53:00.930Z,5.93
2019-02-20T04:54:00.910Z,6.06
2019-02-20T04:55:00.880Z,6.04
2019-02-20T04:56:00.858Z,6.00
2019-02-20T04:57:00.836Z,5.99
2019-02-20T04:58:00.809Z,5.96
2019-02-20T04:59:00.786Z,5.90
2019-02-20T05:00:00.760Z,6.00
2019-02-20T05:01:00.735Z,5.96
2019-02-20T05:02:00.716Z,6.00
2019-02-20T05:03:00.686Z,5.97
2019-02-20T05:04:00.663Z,6.01
2019-02-20T05:05:00.640Z,5.85
2019-02-20T05:06:00.614Z,5.99
2019-02-20T05:07:00.592Z,5.93
2019-02-20T05:08:00.565Z,5.93
2019-02-20T05:09:00.542Z,5.94
2019-02-20T05:10:00.541Z,5.86
2019-02-20T05:11:00.495Z,5.97
2019-02-20T05:12:00.474Z,5.97
2019-02-20T05:13:00.454Z,5.91
2019-02-20T05:14:00.421Z,5.91
2019-02-20T05:15:00.397Z,5.93
2019-02-20T05:16:00.372Z,5.79
2019-02-20T05:17:00.350Z,5.79
2019-02-20T05:18:00.323Z,5.83
2019-02-20T05:19:00.302Z,5.79
2019-02-20T05:20:00.353Z,5.86
2019-02-20T05:21:00.251Z,5.85
2019-02-20T05:22:00.226Z,5.79
2019-02-20T05:23:00.217Z,5.82
2019-02-20T05:24:00.176Z,5.81
2019-02-20T05:25:00.241Z,5.85
2019-02-20T05:26:00.131Z,5.86
2019-02-20T05:27:00.113Z,5.83
2019-02-20T05:28:00.080Z,5.83
2019-02-20T05:29:00.143Z,5.75
2019-02-20T05:30:00.035Z,5.76
2019-02-20T05:31:00.011Z,5.79
2019-02-20T05:31:59.992Z,5.83
2019-02-20T05:32:59.969Z,5.81
2019-02-20T05:33:59.956Z,5.82
2019-02-20T05:34:59.921Z,5.81
2019-02-20T05:35:59.895Z,5.81
2019-02-20T05:36:59.865Z,5.72
2019-02-20T05:37:59.844Z,5.72
2019-02-20T05:38:59.823Z,5.68
2019-02-20T05:39:59.791Z,5.72
2019-02-20T05:40:59.776Z,5.72
2019-02-20T05:41:59.745Z,5.75
2019-02-20T05:42:59.746Z,5.68
2019-02-20T05:43:59.694Z,5.71
2019-02-20T05:44:59.674Z,5.60
2019-02-20T05:45:59.647Z,5.58
2019-02-20T05:46:59.621Z,5.61
2019-02-20T05:47:59.599Z,5.63
2019-02-20T05:48:59.574Z,5.63
2019-02-20T05:49:59.550Z,5.71
2019-02-20T05:50:59.534Z,5.65
2019-02-20T05:51:59.507Z,5.68
2019-02-20T05:52:59.489Z,5.65
2019-02-20T05:53:59.451Z,5.56
2019-02-20T05:54:59.430Z,5.61
2019-02-20T05:55:59.406Z,5.61
2019-02-20T05:56:59.379Z,5.60
2019-02-20T05:57:59.362Z,5.65
2019-02-20T05:58:59.341Z,5.60
2019-02-20T05:59:59.311Z,5.56
2019-02-20T06:00:59.287Z,5.61
2019-02-20T06:01:59.261Z,5.65
2019-02-20T06:02:59.238Z,5.61
2019-02-20T06:03:59.215Z,5.56
2019-02-20T06:04:59.189Z,5.63
2019-02-20T06:05:59.162Z,5.61
2019-02-20T06:06:59.142Z,5.60
2019-02-20T06:07:59.118Z,5.64
2019-02-20T06:08:59.094Z,5.61
2019-02-20T06:09:59.066Z,5.64
2019-02-20T06:10:59.056Z,5.64
2019-02-20T06:11:59.019Z,5.63
2019-02-20T06:12:58.992Z,5.49
2019-02-20T06:13:58.969Z,5.63
2019-02-20T06:14:58.944Z,5.56
2019-02-20T06:15:58.934Z,5.64
2019-02-20T06:16:58.901Z,5.49
2019-02-20T06:17:58.877Z,5.49
2019-02-20T06:18:58.848Z,5.51
2019-02-20T06:19:58.831Z,5.49
2019-02-20T06:20:58.796Z,5.35
2019-02-20T06:21:58.775Z,5.27
2019-02-20T06:22:58.759Z,5.31
2019-02-20T06:23:58.725Z,5.22
2019-02-20T06:24:58.707Z,5.25
2019-02-20T06:25:58.677Z,5.21
2019-02-20T06:26:58.658Z,5.25
2019-02-20T06:27:58.627Z,5.27
2019-02-20T06:28:58.612Z,5.10
2019-02-20T06:29:58.583Z,5.15
2019-02-20T06:30:58.559Z,5.06
2019-02-20T06:31:58.532Z,5.06
2019-02-20T06:32:58.508Z,5.12
2019-02-20T06:33:58.484Z,5.12
2019-02-20T06:34:58.460Z,5.20
2019-02-20T06:35:58.436Z,5.25
2019-02-20T06:36:58.415Z,5.12
2019-02-20T06:37:58.395Z,5.18
2019-02-20T06:38:58.362Z,5.27
2019-02-20T06:39:58.347Z,5.21
2019-02-20T06:40:58.318Z,5.15
2019-02-20T06:41:58.322Z,5.10
2019-02-20T06:42:58.264Z,5.27
2019-02-20T06:43:58.242Z,5.22
2019-02-20T06:44:58.218Z,5.21
2019-02-20T06:45:58.198Z,5.20
2019-02-20T06:46:58.168Z,5.22
2019-02-20T06:47:58.144Z,5.36
2019-02-20T06:48:58.120Z,5.27
2019-02-20T06:49:58.100Z,5.25
2019-02-20T06:50:58.073Z,5.33
2019-02-20T06:51:58.047Z,5.27
2019-02-20T06:52:58.042Z,5.36
2019-02-20T06:53:58.000Z,5.39
2019-02-20T06:54:58.048Z,5.36
2019-02-20T06:55:57.949Z,5.38
2019-02-20T06:56:57.925Z,5.40
2019-02-20T06:57:57.907Z,5.43
2019-02-20T06:58:57.880Z,5.43
2019-02-20T06:59:57.854Z,5.40
2019-02-20T07:00:57.829Z,5.43
2019-02-20T07:01:57.811Z,5.46
2019-02-20T07:02:57.781Z,5.43
2019-02-20T07:03:57.756Z,5.51
2019-02-20T07:04:57.733Z,5.53
2019-02-20T07:05:57.708Z,5.49
2019-02-20T07:06:57.687Z,5.60
2019-02-20T07:07:57.659Z,5.48
2019-02-20T07:08:57.635Z,5.60
2019-02-20T07:09:57.614Z,5.51
2019-02-20T07:10:57.586Z,5.53
2019-02-20T07:11:57.571Z,5.58
2019-02-20T07:12:57.538Z,5.63
2019-02-20T07:13:57.515Z,5.63
2019-02-20T07:14:57.491Z,5.63
2019-02-20T07:15:57.464Z,5.63
2019-02-20T07:16:57.440Z,5.61
2019-02-20T07:17:57.416Z,5.57
2019-02-20T07:18:57.392Z,5.64
2019-02-20T07:19:57.369Z,5.61
2019-02-20T07:20:57.355Z,5.58
2019-02-20T07:21:57.328Z,5.63
2019-02-20T07:22:57.295Z,5.65
2019-02-20T07:23:57.269Z,5.71
2019-02-20T07:25:03.094Z,5.71
2019-02-20T07:25:57.227Z,5.71
2019-02-20T07:26:57.198Z,5.67
2019-02-20T07:27:57.173Z,5.61
2019-02-20T07:28:57.153Z,5.65
2019-02-20T07:29:57.125Z,5.75
2019-02-20T07:30:57.102Z,5.75
2019-02-20T07:31:57.081Z,5.79
2019-02-20T07:32:57.052Z,5.78
2019-02-20T07:33:57.030Z,5.72
2019-02-20T07:34:57.041Z,5.72
2019-02-20T07:35:56.988Z,5.72
2019-02-20T07:36:56.964Z,5.79
2019-02-20T07:37:56.935Z,5.78
2019-02-20T07:38:56.907Z,5.81
2019-02-20T07:39:57.466Z,5.72
2019-02-20T07:40:56.879Z,5.83
2019-02-20T07:41:56.833Z,5.79
2019-02-20T07:42:56.811Z,5.83
2019-02-20T07:43:56.784Z,5.81
2019-02-20T07:44:56.767Z,5.74
2019-02-20T07:45:56.739Z,5.83
2019-02-20T07:46:56.712Z,5.83
2019-02-20T07:47:56.687Z,5.75
2019-02-20T07:48:56.663Z,5.85
2019-02-20T07:49:56.642Z,5.82
2019-02-20T07:50:56.620Z,5.81
2019-02-20T07:51:56.593Z,5.81
2019-02-20T07:52:56.568Z,5.82
2019-02-20T07:53:56.544Z,5.78
2019-02-20T07:54:56.519Z,5.93
2019-02-20T07:55:56.493Z,5.78
2019-02-20T07:56:56.473Z,5.83
2019-02-20T07:57:56.463Z,5.82
2019-02-20T07:58:56.422Z,5.78
2019-02-20T07:59:56.395Z,5.93
2019-02-20T08:00:56.380Z,5.93
2019-02-20T08:01:56.362Z,5.91
2019-02-20T08:02:56.330Z,5.97
2019-02-20T08:03:56.300Z,5.96
2019-02-20T08:04:56.274Z,5.97
2019-02-20T08:05:56.285Z,5.97
2019-02-20T08:06:56.227Z,5.97
2019-02-20T08:07:56.203Z,5.90
2019-02-20T08:08:56.185Z,6.00
2019-02-20T08:09:56.153Z,6.04
2019-02-20T08:10:56.140Z,6.04
2019-02-20T08:11:56.106Z,6.00
2019-02-20T08:12:56.102Z,6.00
2019-02-20T08:13:56.092Z,6.04
2019-02-20T08:14:56.039Z,6.17
2019-02-20T08:15:56.009Z,6.14
2019-02-20T08:16:55.989Z,6.18
2019-02-20T08:17:55.970Z,6.17
2019-02-20T08:18:55.935Z,6.17
2019-02-20T08:19:55.912Z,6.14
2019-02-20T08:20:55.890Z,6.28
2019-02-20T08:21:55.865Z,6.31
2019-02-20T08:22:55.873Z,6.40
2019-02-20T08:23:55.832Z,6.37
2019-02-20T08:24:55.801Z,6.48
2019-02-20T08:25:55.768Z,6.44
2019-02-20T08:26:55.754Z,6.48
2019-02-20T08:27:55.721Z,6.58
2019-02-20T08:28:55.697Z,6.51
2019-02-20T08:29:55.672Z,6.59
2019-02-20T08:30:55.665Z,6.64
2019-02-20T08:31:55.621Z,6.69
2019-02-20T08:32:55.599Z,6.70
2019-02-20T08:33:55.579Z,6.67
2019-02-20T08:34:55.551Z,6.64
2019-02-20T08:35:55.535Z,6.74
2019-02-20T08:36:55.523Z,6.73
2019-02-20T08:37:55.480Z,6.74
2019-02-20T08:38:55.460Z,6.76
2019-02-20T08:39:55.434Z,6.81
2019-02-20T08:40:55.412Z,6.80
2019-02-20T08:41:55.386Z,6.85
2019-02-20T08:42:55.360Z,6.88
2019-02-20T08:43:55.338Z,6.80
2019-02-20T08:44:55.311Z,6.80
2019-02-20T08:45:55.291Z,6.91
2019-02-20T08:46:55.266Z,6.84
2019-02-20T08:47:55.247Z,6.97
2019-02-20T08:48:55.215Z,6.92
2019-02-20T08:49:55.194Z,6.94
2019-02-20T08:50:55.170Z,6.95
2019-02-20T08:51:55.146Z,6.92
2019-02-20T08:52:55.120Z,6.92
2019-02-20T08:53:55.101Z,6.94
2019-02-20T08:54:55.074Z,6.92
2019-02-20T08:55:55.057Z,7.03
2019-02-20T08:56:55.027Z,7.05
2019-02-20T08:57:54.999Z,7.09
2019-02-20T08:58:54.977Z,7.07
2019-02-20T08:59:54.952Z,7.16
2019-02-20T09:00:54.956Z,7.07
2019-02-20T09:01:54.909Z,7.13
2019-02-20T09:02:54.891Z,7.13
2019-02-20T09:03:54.858Z,7.17
2019-02-20T09:04:54.937Z,7.17
2019-02-20T09:05:54.811Z,7.23
2019-02-20T09:06:54.795Z,7.13
2019-02-20T09:07:54.761Z,7.25
2019-02-20T09:08:54.740Z,7.28
2019-02-20T09:09:54.721Z,7.23
2019-02-20T09:10:54.692Z,7.20
2019-02-20T09:11:54.669Z,7.24
2019-02-20T09:12:54.644Z,7.24
2019-02-20T09:13:54.629Z,7.37
2019-02-20T09:14:54.597Z,7.37
2019-02-20T09:15:54.581Z,7.40
2019-02-20T09:16:54.550Z,7.32
2019-02-20T09:17:54.527Z,7.46
2019-02-20T09:18:54.505Z,7.48
2019-02-20T09:19:54.481Z,7.46
2019-02-20T09:20:54.454Z,7.55
2019-02-20T09:21:54.435Z,7.49
2019-02-20T09:22:54.408Z,7.53
2019-02-20T09:23:54.381Z,7.64
2019-02-20T09:24:54.357Z,7.61
2019-02-20T09:25:54.334Z,7.64
2019-02-20T09:26:54.317Z,7.68
2019-02-20T09:27:54.287Z,7.68
2019-02-20T09:28:54.271Z,7.69
2019-02-20T09:29:54.239Z,7.55
2019-02-20T09:30:54.215Z,7.67
2019-02-20T09:31:54.195Z,7.64
2019-02-20T09:32:54.171Z,7.67
2019-02-20T09:33:54.152Z,7.61
2019-02-20T09:34:54.132Z,7.61
2019-02-20T09:35:54.105Z,7.61
2019-02-20T09:36:54.081Z,7.75
2019-02-20T09:37:54.057Z,7.74
2019-02-20T09:38:54.050Z,7.71
2019-02-20T09:39:54.003Z,7.61
2019-02-20T09:40:53.981Z,7.61
2019-02-20T09:41:53.955Z,7.80
2019-02-20T09:42:53.948Z,7.75
2019-02-20T09:43:53.910Z,7.80
2019-02-20T09:44:53.886Z,7.85
2019-02-20T09:45:53.862Z,7.83
2019-02-20T09:46:53.852Z,7.80
2019-02-20T09:47:53.819Z,7.92
2019-02-20T09:48:53.797Z,7.87
2019-02-20T09:49:53.768Z,7.97
2019-02-20T09:50:53.755Z,7.97
2019-02-20T09:51:53.725Z,8.00
2019-02-20T09:52:53.701Z,7.98
2019-02-20T09:53:53.675Z,8.02
2019-02-20T09:54:53.652Z,7.98
2019-02-20T09:55:53.667Z,8.12
2019-02-20T09:56:53.606Z,8.12
2019-02-20T09:57:53.583Z,8.12
2019-02-20T09:58:53.561Z,8.10
2019-02-20T09:59:53.535Z,8.16
2019-02-20T10:00:53.515Z,8.29
2019-02-20T10:01:53.502Z,8.25
2019-02-20T10:02:53.466Z,8.25
2019-02-20T10:03:53.441Z,8.38
2019-02-20T10:04:53.425Z,8.40
2019-02-20T10:05:53.401Z,8.40
2019-02-20T10:06:53.381Z,8.48
2019-02-20T10:07:53.351Z,8.44
2019-02-20T10:08:53.326Z,8.56
2019-02-20T10:09:53.304Z,8.65
2019-02-20T10:10:53.279Z,8.61
2019-02-20T10:11:53.264Z,8.56
2019-02-20T10:12:53.236Z,8.58
2019-02-20T10:13:53.218Z,8.65
2019-02-20T10:14:53.187Z,8.65
2019-02-20T10:15:53.162Z,8.77
2019-02-20T10:16:54.048Z,8.81
2019-02-20T10:17:53.118Z,8.84
2019-02-20T10:18:53.097Z,8.81
2019-02-20T10:19:53.079Z,8.84
2019-02-20T10:20:53.055Z,8.84
2019-02-20T10:21:53.030Z,8.86
2019-02-20T10:22:53.000Z,8.79
2019-02-20T10:23:52.984Z,8.91
2019-02-20T10:24:52.957Z,8.91
2019-02-20T10:26:00.566Z,8.91
2019-02-20T10:27:00.422Z,8.96
2019-02-20T10:27:52.886Z,8.89
2019-02-20T10:28:54.052Z,8.95
2019-02-20T10:29:52.839Z,8.95
2019-02-20T10:30:52.817Z,8.98
2019-02-20T10:31:52.804Z,9.01
2019-02-20T10:32:52.771Z,9.02
2019-02-20T10:33:52.751Z,9.02
2019-02-20T10:34:52.731Z,9.10
2019-02-20T10:35:52.702Z,9.11
2019-02-20T10:36:52.680Z,9.05
2019-02-20T10:37:53.051Z,9.08
2019-02-20T10:38:52.633Z,9.14
2019-02-20T10:39:52.611Z,9.14
2019-02-20T10:40:52.588Z,9.15
2019-02-20T10:41:52.578Z,9.14
2019-02-20T10:42:52.546Z,9.23
2019-02-20T10:43:52.526Z,9.14
2019-02-20T10:44:52.497Z,9.21
2019-02-20T10:45:52.474Z,9.23
2019-02-20T10:46:52.455Z,9.24
2019-02-20T10:47:52.438Z,9.28
2019-02-20T10:48:52.407Z,9.26
2019-02-20T10:49:52.391Z,9.31
2019-02-20T10:50:52.360Z,9.26
2019-02-20T10:51:52.337Z,9.26
2019-02-20T10:52:52.326Z,9.28
2019-02-20T10:53:52.295Z,9.29
2019-02-20T10:54:57.709Z,9.36
2019-02-20T10:55:52.254Z,9.23
2019-02-20T10:56:52.224Z,9.29
2019-02-20T10:57:52.209Z,9.28
2019-02-20T10:58:52.177Z,9.35
2019-02-20T10:59:52.157Z,9.29
2019-02-20T11:00:52.142Z,9.28
2019-02-20T11:01:52.120Z,9.33
2019-02-20T11:02:52.101Z,9.38
2019-02-20T11:03:52.067Z,9.35
2019-02-20T11:04:52.044Z,9.23
2019-02-20T11:05:52.020Z,9.36
2019-02-20T11:06:51.994Z,9.33
2019-02-20T11:07:51.984Z,9.36
2019-02-20T11:08:51.957Z,9.32
2019-02-20T11:09:51.928Z,9.33
2019-02-20T11:10:51.904Z,9.31
2019-02-20T11:11:51.880Z,9.26
2019-02-20T11:12:51.861Z,9.39
2019-02-20T11:13:51.837Z,9.36
2019-02-20T11:14:51.827Z,9.40
2019-02-20T11:15:51.794Z,9.46
2019-02-20T11:16:51.784Z,9.39
2019-02-20T11:17:51.748Z,9.35
2019-02-20T11:18:51.731Z,9.40
2019-02-20T11:19:51.706Z,9.48
2019-02-20T11:20:51.681Z,9.46
2019-02-20T11:21:51.655Z,9.40
2019-02-20T11:22:51.634Z,9.53
2019-02-20T11:23:51.609Z,9.48
2019-02-20T11:24:51.590Z,9.47
2019-02-20T11:25:51.564Z,9.42
2019-02-20T11:26:54.989Z,9.46
2019-02-20T11:27:51.518Z,9.48
2019-02-20T11:28:51.496Z,9.43
2019-02-20T11:29:51.473Z,9.48
2019-02-20T11:30:51.449Z,9.48
2019-02-20T11:31:51.430Z,9.58
2019-02-20T11:32:51.411Z,9.54
2019-02-20T11:33:51.386Z,9.57
2019-02-20T11:34:51.364Z,9.58
2019-02-20T11:35:51.341Z,9.65
2019-02-20T11:36:51.329Z,9.65
2019-02-20T11:37:51.295Z,9.74
2019-02-20T11:38:51.271Z,9.69
2019-02-20T11:39:51.247Z,9.81
2019-02-20T11:40:51.227Z,9.81
2019-02-20T11:41:51.215Z,9.83
2019-02-20T11:42:51.186Z,9.83
2019-02-20T11:43:51.169Z,9.78
2019-02-20T11:44:51.138Z,9.78
2019-02-20T11:45:51.117Z,9.87
2019-02-20T11:46:51.092Z,9.96
2019-02-20T11:47:51.078Z,9.99
2019-02-20T11:48:51.051Z,9.90
2019-02-20T11:49:51.036Z,10.01
2019-02-20T11:50:51.004Z,10.01
2019-02-20T11:51:50.979Z,10.08
2019-02-20T11:52:50.956Z,10.08
2019-02-20T11:53:50.943Z,10.07
2019-02-20T11:54:50.914Z,10.09
2019-02-20T11:55:50.902Z,10.11
2019-02-20T11:56:50.869Z,10.08
2019-02-20T11:57:50.850Z,10.04
2019-02-20T11:58:50.826Z,10.05
2019-02-20T11:59:50.815Z,10.12
2019-02-20T12:00:50.778Z,10.11
2019-02-20T12:01:50.765Z,10.05
2019-02-20T12:02:50.735Z,10.05
2019-02-20T12:03:50.715Z,10.07
2019-02-20T12:04:50.691Z,10.07
2019-02-20T12:05:50.676Z,10.09
2019-02-20T12:06:50.647Z,10.09
2019-02-20T12:07:50.623Z,10.05
2019-02-20T12:08:50.601Z,10.05
2019-02-20T12:09:50.582Z,10.09
2019-02-20T12:10:50.556Z,10.04
2019-02-20T12:11:50.534Z,10.11
2019-02-20T12:12:50.518Z,10.02
2019-02-20T12:13:50.489Z,10.01
2019-02-20T12:14:50.469Z,10.09
2019-02-20T12:15:50.444Z,10.02
2019-02-20T12:16:50.446Z,10.11
2019-02-20T12:17:50.401Z,10.05
2019-02-20T12:18:50.385Z,10.08
2019-02-20T12:19:50.357Z,10.05
2019-02-20T12:20:50.334Z,10.04
2019-02-20T12:21:50.312Z,10.07
2019-02-20T12:22:50.298Z,10.05
2019-02-20T12:23:50.266Z,10.18
2019-02-20T12:24:50.244Z,10.11
2019-02-20T12:25:50.227Z,10.15
2019-02-20T12:26:50.202Z,10.18
2019-02-20T12:27:50.181Z,10.30
2019-02-20T12:28:50.156Z,10.38
2019-02-20T12:29:50.137Z,10.40
2019-02-20T12:30:50.113Z,10.47
2019-02-20T12:31:52.430Z,10.42
2019-02-20T12:32:50.070Z,10.52
2019-02-20T12:33:50.049Z,10.52
2019-02-20T12:34:50.026Z,10.55
2019-02-20T12:35:50.013Z,10.59
2019-02-20T12:36:49.990Z,10.63
2019-02-20T12:37:49.960Z,10.68
2019-02-20T12:38:49.939Z,10.64
2019-02-20T12:39:49.922Z,10.68
2019-02-20T12:40:50.911Z,10.63
2019-02-20T12:41:49.877Z,10.67
2019-02-20T12:42:49.850Z,10.71
2019-02-20T12:43:49.835Z,10.81
2019-02-20T12:44:49.803Z,10.97
2019-02-20T12:45:49.794Z,10.92
2019-02-20T12:46:49.763Z,10.96
2019-02-20T12:47:49.740Z,10.99
2019-02-20T12:48:49.718Z,11.00
2019-02-20T12:49:51.452Z,11.03
2019-02-20T12:50:49.685Z,11.00
2019-02-20T12:51:49.656Z,10.97
2019-02-20T12:52:49.636Z,11.02
2019-02-20T12:53:49.616Z,11.02
2019-02-20T12:54:49.584Z,10.99
2019-02-20T12:55:49.564Z,11.03
2019-02-20T12:56:49.548Z,10.97
2019-02-20T12:57:49.519Z,11.10
2019-02-20T12:58:49.500Z,10.99
2019-02-20T12:59:49.476Z,11.09
2019-02-20T13:00:49.452Z,11.09
2019-02-20T13:01:49.430Z,11.06
2019-02-20T13:02:49.419Z,11.03
2019-02-20T13:03:49.394Z,11.07
2019-02-20T13:04:49.372Z,11.11
2019-02-20T13:05:49.352Z,11.06
2019-02-20T13:06:57.438Z,11.03
2019-02-20T13:07:49.306Z,11.09
2019-02-20T13:08:49.295Z,11.06
2019-02-20T13:09:50.176Z,11.09
2019-02-20T13:10:49.237Z,11.03
2019-02-20T13:11:49.219Z,10.96
2019-02-20T13:12:49.189Z,10.91
2019-02-20T13:13:49.200Z,10.94
2019-02-20T13:14:49.149Z,10.89